createdAt,value
2017-11-28T00:01:19.058Z,4.20
2017-11-28T00:03:46.509Z,4.30
2017-11-28T00:06:14.140Z,4.30
2017-11-28T00:08:42.190Z,4.30
2017-11-28T00:11:10.184Z,4.40
2017-11-28T00:13:37.861Z,4.50
2017-11-28T00:16:05.341Z,4.50
2017-11-28T00:18:32.804Z,4.60
2017-11-28T00:21:00.277Z,4.60
2017-11-28T00:23:30.157Z,4.70
2017-11-28T00:25:57.684Z,4.70
2017-11-28T00:28:26.026Z,4.60
2017-11-28T00:30:53.556Z,4.60
2017-11-28T00:33:21.391Z,4.60
2017-11-28T00:35:49.161Z,4.60
2017-11-28T00:38:17.224Z,4.60
2017-11-28T00:40:44.996Z,4.60
2017-11-28T00:43:13.293Z,4.60
2017-11-28T00:45:40.750Z,4.50
2017-11-28T00:48:31.464Z,4.60
2017-11-28T00:50:58.916Z,4.60
2017-11-28T00:53:26.902Z,4.60
2017-11-28T00:55:54.443Z,4.60
2017-11-28T00:58:21.929Z,4.60
2017-11-28T01:00:50.300Z,4.60
2017-11-28T01:03:18.545Z,4.50
2017-11-28T01:05:45.999Z,4.50
2017-11-28T01:08:13.837Z,4.50
2017-11-28T01:10:41.838Z,4.50
2017-11-28T01:13:10.163Z,4.40
2017-11-28T01:15:38.814Z,4.40
2017-11-28T01:18:06.625Z,4.40
2017-11-28T01:20:34.133Z,4.40
2017-11-28T01:23:01.597Z,4.30
2017-11-28T01:25:29.057Z,4.30
2017-11-28T01:27:56.533Z,4.30
2017-11-28T01:30:24.012Z,4.20
2017-11-28T01:32:52.261Z,4.20
2017-11-28T01:35:19.733Z,4.20
2017-11-28T01:37:47.986Z,4.10
2017-11-28T01:40:15.452Z,4.10
2017-11-28T01:42:42.914Z,4.10
2017-11-28T01:45:10.403Z,4.00
2017-11-28T01:47:38.608Z,4.00
2017-11-28T01:50:06.073Z,3.90
2017-11-28T01:52:33.529Z,3.90
2017-11-28T01:55:00.992Z,3.90
2017-11-28T01:57:28.448Z,3.80
2017-11-28T01:59:55.933Z,3.80
2017-11-28T02:02:23.388Z,3.80
2017-11-28T02:04:50.870Z,3.80
2017-11-28T02:07:19.101Z,3.90
2017-11-28T02:09:46.576Z,3.80
2017-11-28T02:12:15.536Z,3.80
2017-11-28T02:14:43.005Z,3.80
2017-11-28T02:17:10.477Z,3.70
2017-11-28T02:19:37.953Z,3.70
2017-11-28T02:22:06.176Z,3.70
2017-11-28T02:24:33.697Z,3.60
2017-11-28T02:27:01.920Z,3.60
2017-11-28T02:29:29.386Z,3.60
2017-11-28T02:31:56.864Z,3.60
2017-11-28T02:34:24.330Z,3.50
2017-11-28T02:36:51.787Z,3.50
2017-11-28T02:39:20.069Z,3.50
2017-11-28T02:41:47.526Z,3.50
2017-11-28T02:44:15.770Z,3.50
2017-11-28T02:46:43.253Z,3.50
2017-11-28T02:49:22.300Z,3.50
2017-11-28T02:51:53.335Z,3.50
2017-11-28T02:54:21.597Z,3.50
2017-11-28T02:56:49.062Z,3.50
2017-11-28T02:59:18.877Z,3.50
2017-11-28T03:01:50.944Z,3.50
2017-11-28T03:04:19.174Z,3.50
2017-11-28T03:06:46.650Z,3.50
2017-11-28T03:09:16.652Z,3.50
2017-11-28T03:11:44.133Z,3.40
2017-11-28T03:14:26.468Z,3.40
2017-11-28T03:16:54.740Z,3.30
2017-11-28T03:19:25.819Z,3.30
2017-11-28T03:21:55.145Z,3.30
2017-11-28T03:24:28.123Z,3.30
2017-11-28T03:26:55.585Z,3.30
2017-11-28T03:29:26.612Z,3.30
2017-11-28T03:31:54.076Z,3.20
2017-11-28T03:34:22.440Z,3.20
2017-11-28T03:36:49.901Z,3.20
2017-11-28T03:39:17.358Z,3.20
2017-11-28T03:41:44.841Z,3.20
2017-11-28T03:47:14.662Z,3.10
2017-11-28T03:49:42.117Z,3.10
2017-11-28T03:52:09.596Z,3.10
2017-11-28T03:54:37.156Z,3.10
2017-11-28T03:57:04.638Z,3.10
2017-11-28T03:59:32.876Z,3.10
2017-11-28T04:02:00.324Z,3.10
2017-11-28T04:04:27.799Z,3.00
2017-11-28T04:06:55.260Z,3.00
2017-11-28T04:09:22.717Z,3.00
2017-11-28T04:11:50.183Z,3.00
2017-11-28T04:14:17.651Z,3.00
2017-11-28T04:16:45.868Z,2.90
2017-11-28T04:19:13.347Z,2.90
2017-11-28T04:21:40.801Z,2.90
2017-11-28T04:24:08.310Z,2.90
2017-11-28T04:26:36.524Z,2.80
2017-11-28T04:29:03.996Z,2.80
2017-11-28T04:31:31.457Z,2.80
2017-11-28T04:33:58.916Z,2.80
2017-11-28T04:36:26.388Z,2.80
2017-11-28T04:38:53.849Z,2.80
2017-11-28T04:41:21.313Z,2.80
2017-11-28T04:43:48.762Z,2.80
2017-11-28T04:46:16.235Z,2.80
2017-11-28T04:48:44.474Z,2.80
2017-11-28T04:51:11.930Z,2.80
2017-11-28T04:53:39.395Z,2.80
2017-11-28T04:56:06.854Z,2.90
2017-11-28T04:58:34.311Z,2.90
2017-11-28T05:01:01.797Z,2.90
2017-11-28T05:03:30.025Z,2.90
2017-11-28T05:05:58.788Z,2.80
2017-11-28T05:08:26.770Z,2.90
2017-11-28T05:10:54.466Z,2.90
2017-11-28T05:13:21.936Z,3.00
2017-11-28T05:15:50.749Z,3.10
2017-11-28T05:18:18.261Z,3.10
2017-11-28T05:20:45.774Z,3.20
2017-11-28T05:23:13.324Z,3.20
2017-11-28T05:25:41.561Z,3.30
2017-11-28T05:28:09.029Z,3.30
2017-11-28T05:30:36.512Z,3.30
2017-11-28T05:33:04.815Z,3.40
2017-11-28T05:35:32.293Z,3.40
2017-11-28T05:38:01.520Z,3.40
2017-11-28T05:40:29.453Z,3.40
2017-11-28T05:42:57.910Z,3.40
2017-11-28T05:45:26.752Z,3.40
2017-11-28T05:47:55.961Z,3.40
2017-11-28T05:50:25.284Z,3.20
2017-11-28T05:52:54.116Z,3.20
2017-11-28T05:55:21.974Z,3.20
2017-11-28T05:57:49.963Z,3.30
2017-11-28T06:00:17.421Z,3.30
2017-11-28T06:02:44.890Z,3.30
2017-11-28T06:05:12.345Z,3.30
2017-11-28T06:07:39.825Z,3.40
2017-11-28T06:10:07.288Z,3.40
2017-11-28T06:12:38.255Z,3.50
2017-11-28T06:15:06.484Z,3.50
2017-11-28T06:17:33.953Z,3.50
2017-11-28T06:20:01.414Z,3.50
2017-11-28T06:22:28.888Z,3.50
2017-11-28T06:24:57.121Z,3.50
2017-11-28T06:27:24.589Z,3.50
2017-11-28T06:29:52.043Z,3.40
2017-11-28T06:32:19.517Z,3.30
2017-11-28T06:34:46.985Z,3.20
2017-11-28T06:37:14.452Z,3.10
2017-11-28T06:39:42.690Z,3.00
2017-11-28T06:42:16.995Z,3.00
2017-11-28T06:44:44.458Z,3.00
2017-11-28T06:47:11.919Z,3.00
2017-11-28T06:49:39.561Z,3.00
2017-11-28T06:52:07.010Z,2.90
2017-11-28T06:54:34.479Z,3.00
2017-11-28T06:57:04.341Z,2.90
2017-11-28T06:59:31.800Z,2.90
2017-11-28T07:02:00.033Z,2.80
2017-11-28T07:04:27.501Z,2.80
2017-11-28T07:06:54.960Z,2.80
2017-11-28T07:09:22.429Z,2.80
2017-11-28T07:11:49.885Z,2.70
2017-11-28T07:14:17.347Z,2.70
2017-11-28T07:16:44.906Z,2.80
2017-11-28T07:19:12.369Z,2.80
2017-11-28T07:21:39.836Z,2.90
2017-11-28T07:24:08.088Z,2.90
2017-11-28T07:26:35.542Z,2.90
2017-11-28T07:29:03.020Z,2.90
2017-11-28T07:31:30.481Z,3.00
2017-11-28T07:33:57.941Z,3.10
2017-11-28T07:36:25.425Z,3.20
2017-11-28T07:38:53.645Z,3.30
2017-11-28T07:41:21.104Z,3.30
2017-11-28T07:43:48.560Z,3.30
2017-11-28T07:46:16.037Z,3.40
2017-11-28T07:48:43.494Z,3.40
2017-11-28T07:51:11.725Z,3.50
2017-11-28T07:53:39.187Z,3.50
2017-11-28T07:56:06.663Z,3.60
2017-11-28T07:58:34.152Z,3.70
2017-11-28T08:01:03.870Z,3.70
2017-11-28T08:03:31.883Z,3.80
2017-11-28T08:05:59.363Z,3.90
2017-11-28T08:08:26.812Z,4.10
2017-11-28T08:10:54.279Z,4.10
2017-11-28T08:13:21.736Z,4.30
2017-11-28T08:15:49.237Z,4.50
2017-11-28T08:18:17.460Z,4.70
2017-11-28T08:20:44.928Z,4.70
2017-11-28T08:23:12.417Z,4.80
2017-11-28T08:25:40.675Z,4.90
2017-11-28T08:28:08.168Z,4.90
2017-11-28T08:30:35.628Z,4.90
2017-11-28T08:33:03.090Z,4.90
2017-11-28T08:35:30.596Z,4.80
2017-11-28T08:37:58.081Z,4.80
2017-11-28T08:40:26.313Z,4.80
2017-11-28T08:42:53.779Z,4.70
2017-11-28T08:45:21.223Z,4.80
2017-11-28T08:47:49.447Z,4.80
2017-11-28T08:50:16.896Z,4.80
2017-11-28T08:52:44.360Z,4.80
2017-11-28T08:55:11.820Z,4.70
2017-11-28T08:57:39.278Z,4.70
2017-11-28T09:00:06.748Z,4.70
2017-11-28T09:02:34.209Z,4.70
2017-11-28T09:05:01.665Z,4.70
2017-11-28T09:07:29.132Z,4.70
2017-11-28T09:09:56.584Z,4.70
2017-11-28T09:12:24.053Z,4.70
2017-11-28T09:14:51.502Z,4.70
2017-11-28T09:17:18.965Z,4.70
2017-11-28T09:19:46.486Z,4.70
2017-11-28T09:22:14.119Z,4.80
2017-11-28T09:24:42.344Z,4.90
2017-11-28T09:27:10.751Z,4.80
2017-11-28T09:29:38.211Z,4.90
2017-11-28T09:32:05.675Z,5.00
2017-11-28T09:34:33.140Z,5.10
2017-11-28T09:37:00.590Z,5.10
2017-11-28T09:39:28.049Z,5.30
2017-11-28T09:41:55.556Z,5.40
2017-11-28T09:44:23.012Z,5.60
2017-11-28T09:46:50.511Z,5.80
2017-11-28T09:49:18.013Z,6.00
2017-11-28T09:51:46.268Z,6.40
2017-11-28T09:54:13.731Z,6.30
2017-11-28T09:56:41.952Z,6.50
2017-11-28T09:59:09.419Z,6.50
2017-11-28T10:01:36.878Z,6.70
2017-11-28T10:04:04.345Z,6.80
2017-11-28T10:06:31.794Z,6.90
2017-11-28T10:08:59.270Z,7.10
2017-11-28T10:11:26.725Z,7.20
2017-11-28T10:13:54.200Z,7.20
2017-11-28T10:16:21.692Z,7.30
2017-11-28T10:18:49.197Z,7.30
2017-11-28T10:21:16.639Z,7.40
2017-11-28T10:23:44.087Z,7.40
2017-11-28T10:26:11.551Z,7.50
2017-11-28T10:28:39.013Z,7.40
2017-11-28T10:31:11.026Z,7.30
2017-11-28T10:33:39.293Z,7.20
2017-11-28T10:36:06.788Z,7.20
2017-11-28T10:38:34.240Z,7.20
2017-11-28T10:41:02.474Z,7.10
2017-11-28T10:43:29.947Z,7.10
2017-11-28T10:45:57.445Z,7.10
2017-11-28T10:48:24.911Z,7.10
2017-11-28T10:50:52.375Z,7.10
2017-11-28T10:53:19.845Z,7.20
2017-11-28T10:55:47.298Z,7.20
2017-11-28T10:58:14.749Z,7.20
2017-11-28T11:00:42.212Z,7.30
2017-11-28T11:03:09.663Z,7.40
2017-11-28T11:05:37.137Z,7.40
2017-11-28T11:08:04.582Z,7.40
2017-11-28T11:10:32.051Z,7.40
2017-11-28T11:12:59.508Z,7.50
2017-11-28T11:15:26.987Z,7.60
2017-11-28T11:17:54.443Z,7.70
2017-11-28T11:20:21.905Z,7.90
2017-11-28T11:22:49.400Z,7.90
2017-11-28T11:25:16.815Z,8.00
2017-11-28T11:27:44.299Z,8.00
2017-11-28T11:30:11.748Z,8.00
2017-11-28T11:32:39.207Z,7.90
2017-11-28T11:35:06.659Z,7.90
2017-11-28T11:37:34.122Z,7.70
2017-11-28T11:40:01.585Z,7.60
2017-11-28T11:42:29.047Z,7.60
2017-11-28T11:44:56.494Z,7.60
2017-11-28T11:47:23.955Z,7.70
2017-11-28T11:49:51.418Z,7.70
2017-11-28T11:52:18.877Z,7.70
2017-11-28T11:54:46.328Z,7.70
2017-11-28T11:57:13.782Z,7.80
2017-11-28T11:59:41.234Z,7.80
2017-11-28T12:02:08.699Z,7.90
2017-11-28T12:04:36.151Z,7.80
2017-11-28T12:07:03.628Z,7.70
2017-11-28T12:09:31.103Z,7.70
2017-11-28T12:11:59.326Z,7.60
2017-11-28T12:14:27.597Z,7.60
2017-11-28T12:16:55.048Z,7.60
2017-11-28T12:19:22.515Z,7.60
2017-11-28T12:21:49.974Z,7.50
2017-11-28T12:24:17.452Z,7.40
2017-11-28T12:26:44.893Z,7.40
2017-11-28T12:29:12.351Z,7.30
2017-11-28T12:31:40.589Z,7.20
2017-11-28T12:34:08.825Z,7.20
2017-11-28T12:36:36.273Z,7.20
2017-11-28T12:39:03.743Z,7.20
2017-11-28T12:41:31.200Z,7.10
2017-11-28T12:43:58.661Z,7.10
2017-11-28T12:46:26.114Z,7.10
2017-11-28T12:48:53.579Z,7.20
2017-11-28T12:51:21.041Z,7.10
2017-11-28T12:53:48.499Z,7.20
2017-11-28T12:56:15.972Z,7.20
2017-11-28T12:58:43.436Z,7.30
2017-11-28T13:01:11.665Z,7.30
2017-11-28T13:03:39.133Z,7.30
2017-11-28T13:06:06.592Z,7.40
2017-11-28T13:08:34.078Z,7.40
2017-11-28T13:11:01.528Z,7.30
2017-11-28T13:13:28.979Z,7.30
2017-11-28T13:15:56.450Z,7.30
2017-11-28T13:18:23.912Z,7.20
2017-11-28T13:20:51.381Z,7.10
2017-11-28T13:23:19.602Z,7.00
2017-11-28T13:25:47.063Z,7.00
2017-11-28T13:28:14.519Z,7.00
2017-11-28T13:30:42.752Z,7.00
2017-11-28T13:33:10.972Z,6.90
2017-11-28T13:35:38.427Z,6.90
2017-11-28T13:38:05.892Z,6.90
2017-11-28T13:40:33.378Z,6.80
2017-11-28T13:43:00.833Z,6.80
2017-11-28T13:45:28.305Z,6.80
2017-11-28T13:47:55.756Z,6.80
2017-11-28T13:50:23.240Z,6.80
2017-11-28T13:52:50.693Z,6.80
2017-11-28T13:55:18.922Z,6.80
2017-11-28T13:57:46.882Z,6.70
2017-11-28T14:00:14.359Z,6.70
2017-11-28T14:02:41.816Z,6.70
2017-11-28T14:05:09.284Z,6.70
2017-11-28T14:07:36.747Z,6.60
2017-11-28T14:10:04.205Z,6.60
2017-11-28T14:12:31.653Z,6.60
2017-11-28T14:14:59.112Z,6.60
2017-11-28T14:17:26.578Z,6.50
2017-11-28T14:19:54.027Z,6.50
2017-11-28T14:22:21.921Z,6.40
2017-11-28T14:24:59.276Z,6.40
2017-11-28T14:27:38.405Z,6.30
2017-11-28T14:30:06.438Z,6.30
2017-11-28T14:32:38.427Z,6.20
2017-11-28T14:35:22.679Z,6.20
2017-11-28T14:37:50.161Z,6.20
2017-11-28T14:40:17.617Z,6.10
2017-11-28T14:42:50.663Z,6.10
2017-11-28T14:45:19.023Z,6.00
2017-11-28T14:47:46.462Z,6.00
2017-11-28T14:50:13.924Z,5.90
2017-11-28T14:52:59.198Z,5.90
2017-11-28T14:55:28.237Z,5.90
2017-11-28T15:01:19.928Z,5.70
2017-11-28T15:06:53.988Z,5.60
2017-11-28T15:09:27.252Z,5.60
2017-11-28T15:12:00.452Z,5.60
2017-11-28T15:17:34.367Z,5.60
2017-11-28T15:20:03.429Z,5.60
2017-11-28T15:22:31.333Z,5.60
2017-11-28T15:27:58.702Z,5.60
2017-11-28T15:30:26.191Z,5.50
2017-11-28T15:32:53.657Z,5.60
2017-11-28T15:35:21.883Z,5.60
2017-11-28T15:37:55.152Z,5.60
2017-11-28T15:40:22.605Z,5.60
2017-11-28T15:42:50.100Z,5.60
2017-11-28T15:45:17.560Z,5.50
2017-11-28T15:47:45.040Z,5.50
2017-11-28T15:50:13.266Z,5.30
2017-11-28T15:52:40.730Z,5.30
2017-11-28T15:55:08.184Z,5.30
2017-11-28T15:57:35.701Z,5.30
2017-11-28T16:00:03.931Z,5.20
2017-11-28T16:02:31.418Z,5.20
2017-11-28T16:04:58.872Z,5.20
2017-11-28T16:07:26.327Z,5.20
2017-11-28T16:09:53.788Z,5.20
2017-11-28T16:12:21.250Z,5.10
2017-11-28T16:14:48.821Z,5.20
2017-11-28T16:17:17.046Z,5.10
2017-11-28T16:19:44.511Z,5.10
2017-11-28T16:22:11.975Z,5.10
2017-11-28T16:24:39.534Z,5.00
2017-11-28T16:27:07.012Z,5.00
2017-11-28T16:29:34.489Z,5.00
2017-11-28T16:32:02.736Z,4.90
2017-11-28T16:34:30.236Z,4.90
2017-11-28T16:36:58.478Z,4.90
2017-11-28T16:39:25.941Z,4.90
2017-11-28T16:41:53.402Z,5.00
2017-11-28T16:44:20.865Z,5.00
2017-11-28T16:46:48.325Z,5.00
2017-11-28T16:49:15.788Z,5.00
2017-11-28T16:51:44.019Z,5.00
2017-11-28T16:54:11.489Z,5.00
2017-11-28T16:56:38.952Z,4.90
2017-11-28T16:59:06.441Z,4.90
2017-11-28T17:01:34.729Z,4.90
2017-11-28T17:04:02.955Z,4.90
2017-11-28T17:06:30.500Z,4.90
2017-11-28T17:08:57.970Z,4.90
2017-11-28T17:11:25.436Z,4.90
2017-11-28T17:13:52.933Z,5.00
2017-11-28T17:16:21.165Z,5.00
2017-11-28T17:18:48.633Z,5.00
2017-11-28T17:21:16.101Z,5.00
2017-11-28T17:23:43.553Z,5.00
2017-11-28T17:26:11.013Z,5.00
2017-11-28T17:28:38.468Z,5.00
2017-11-28T17:31:05.932Z,5.00
2017-11-28T17:33:33.389Z,5.00
2017-11-28T17:36:00.880Z,5.00
2017-11-28T17:38:28.337Z,5.10
2017-11-28T17:40:55.813Z,5.10
2017-11-28T17:43:23.292Z,5.20
2017-11-28T17:45:50.761Z,5.20
2017-11-28T17:48:18.220Z,5.20
2017-11-28T17:50:45.676Z,5.20
2017-11-28T17:53:13.156Z,5.20
2017-11-28T17:55:41.391Z,5.20
2017-11-28T17:58:08.849Z,5.20
2017-11-28T18:00:36.305Z,5.20
2017-11-28T18:03:03.772Z,5.20
2017-11-28T18:05:31.285Z,5.20
2017-11-28T18:07:58.803Z,5.30
2017-11-28T18:10:26.257Z,5.30
2017-11-28T18:12:53.726Z,5.20
2017-11-28T18:15:21.311Z,5.20
2017-11-28T18:17:48.767Z,5.20
2017-11-28T18:20:16.230Z,5.20
2017-11-28T18:22:43.701Z,5.10
2017-11-28T18:25:11.349Z,5.00
2017-11-28T18:27:38.820Z,5.00
2017-11-28T18:30:06.285Z,4.90
2017-11-28T18:32:33.833Z,4.90
2017-11-28T18:35:01.293Z,4.90
2017-11-28T18:37:28.761Z,4.80
2017-11-28T18:39:56.240Z,4.80
2017-11-28T18:42:23.709Z,4.80
2017-11-28T18:44:51.168Z,4.80
2017-11-28T18:47:18.649Z,4.80
2017-11-28T18:49:46.873Z,4.70
2017-11-28T18:52:14.350Z,4.70
2017-11-28T18:54:41.806Z,4.70
2017-11-28T18:57:09.316Z,4.70
2017-11-28T18:59:36.772Z,4.70
2017-11-28T19:02:04.235Z,4.70
2017-11-28T19:04:31.699Z,4.70
2017-11-28T19:06:59.160Z,4.60
2017-11-28T19:09:26.621Z,4.60
2017-11-28T19:11:54.113Z,4.60
2017-11-28T19:14:21.574Z,4.60
2017-11-28T19:16:49.033Z,4.50
2017-11-28T19:19:17.275Z,4.40
2017-11-28T19:21:44.763Z,4.40
2017-11-28T19:24:12.216Z,4.30
2017-11-28T19:26:39.677Z,4.20
2017-11-28T19:29:07.141Z,4.20
2017-11-28T19:31:34.600Z,4.20
2017-11-28T19:34:02.069Z,4.10
2017-11-28T19:36:29.531Z,4.10
2017-11-28T19:38:56.993Z,4.20
2017-11-28T19:41:25.221Z,4.20
2017-11-28T19:43:52.683Z,4.20
2017-11-28T19:46:20.140Z,4.20
2017-11-28T19:48:47.600Z,4.10
2017-11-28T19:51:15.056Z,4.10
2017-11-28T19:53:42.524Z,4.10
2017-11-28T19:56:10.029Z,4.10
2017-11-28T19:58:38.257Z,4.20
2017-11-28T20:01:05.717Z,4.10
2017-11-28T20:03:33.172Z,4.20
2017-11-28T20:06:00.637Z,4.20
2017-11-28T20:08:28.100Z,4.20
2017-11-28T20:10:55.552Z,4.30
2017-11-28T20:13:23.008Z,4.30
2017-11-28T20:15:50.490Z,4.30
2017-11-28T20:18:18.041Z,4.20
2017-11-28T20:20:45.520Z,4.20
2017-11-28T20:23:12.968Z,4.30
2017-11-28T20:25:40.425Z,4.30
2017-11-28T20:28:07.897Z,4.20
2017-11-28T20:30:36.115Z,4.20
2017-11-28T20:33:03.577Z,4.10
2017-11-28T20:35:31.088Z,4.20
2017-11-28T20:37:59.314Z,4.20
2017-11-28T20:40:26.776Z,4.20
2017-11-28T20:42:54.327Z,4.30
2017-11-28T20:45:21.829Z,4.30
2017-11-28T20:47:49.288Z,4.30
2017-11-28T20:50:16.749Z,4.30
2017-11-28T20:52:44.209Z,4.30
2017-11-28T20:55:11.673Z,4.30
2017-11-28T20:57:39.126Z,4.30
2017-11-28T21:00:06.609Z,4.40
2017-11-28T21:02:34.840Z,4.40
2017-11-28T21:05:02.292Z,4.40
2017-11-28T21:07:29.761Z,4.40
2017-11-28T21:09:57.216Z,4.50
2017-11-28T21:12:24.709Z,4.50
2017-11-28T21:14:52.929Z,4.50
2017-11-28T21:17:20.396Z,4.50
2017-11-28T21:19:47.859Z,4.50
2017-11-28T21:22:15.323Z,4.40
2017-11-28T21:24:42.780Z,4.40
2017-11-28T21:27:10.250Z,4.40
2017-11-28T21:29:37.697Z,4.50
2017-11-28T21:32:05.160Z,4.50
2017-11-28T21:34:32.616Z,4.50
2017-11-28T21:37:00.106Z,4.50
2017-11-28T21:39:28.334Z,4.50
2017-11-28T21:41:55.797Z,4.40
2017-11-28T21:44:23.274Z,4.40
2017-11-28T21:46:50.733Z,4.40
2017-11-28T21:49:18.193Z,4.40
2017-11-28T21:51:45.684Z,4.40
2017-11-28T21:54:13.904Z,4.40
2017-11-28T21:56:41.359Z,4.40
2017-11-28T21:59:08.833Z,4.40
2017-11-28T22:01:36.297Z,4.50
2017-11-28T22:04:03.772Z,4.50
2017-11-28T22:06:31.227Z,4.50
2017-11-28T22:08:58.713Z,4.60
2017-11-28T22:11:26.933Z,4.60
2017-11-28T22:13:54.396Z,4.60
2017-11-28T22:16:21.852Z,4.60
2017-11-28T22:18:49.313Z,4.60
2017-11-28T22:21:16.777Z,4.60
2017-11-28T22:23:44.253Z,4.60
2017-11-28T22:26:11.709Z,4.50
2017-11-28T22:28:39.168Z,4.50
2017-11-28T22:31:06.633Z,4.40
2017-11-28T22:33:34.871Z,4.30
2017-11-28T22:36:02.332Z,4.30
2017-11-28T22:38:29.804Z,4.30
2017-11-28T22:40:57.269Z,4.20
2017-11-28T22:43:25.520Z,4.20
2017-11-28T22:45:52.984Z,4.10
2017-11-28T22:48:20.441Z,4.10
2017-11-28T22:50:47.916Z,4.10
2017-11-28T22:53:15.405Z,4.10
2017-11-28T22:55:43.637Z,4.10
2017-11-28T22:58:11.093Z,4.00
2017-11-28T23:00:38.637Z,4.10
2017-11-28T23:03:06.109Z,4.00
2017-11-28T23:05:33.560Z,3.90
2017-11-28T23:08:01.036Z,3.80
2017-11-28T23:10:28.573Z,3.80
2017-11-28T23:12:56.075Z,3.80
2017-11-28T23:15:24.342Z,3.80
2017-11-28T23:17:51.789Z,3.70
2017-11-28T23:20:19.302Z,3.80
2017-11-28T23:22:46.790Z,3.80
2017-11-28T23:25:14.236Z,3.70
2017-11-28T23:27:41.697Z,3.70
2017-11-28T23:30:09.169Z,3.70
2017-11-28T23:32:36.627Z,3.70
2017-11-28T23:35:04.105Z,3.70
2017-11-28T23:37:32.328Z,3.70
2017-11-28T23:39:59.789Z,3.70
2017-11-28T23:42:27.244Z,3.70
2017-11-28T23:44:54.729Z,3.70
2017-11-28T23:47:22.185Z,3.70
2017-11-28T23:49:49.648Z,3.80
2017-11-28T23:52:17.120Z,3.80
2017-11-28T23:54:44.568Z,3.80
2017-11-28T23:57:12.033Z,3.80
2017-11-28T23:59:40.264Z,3.80
